Time;durP1;ratioP1;P1;durP2;ratioP2;P2;SDS_P1;SDS_P2;PMS_P1;PMS_P2;Temp;Humidity;BMP_temperature;BMP_pressure;BME280_temperature;BME280_humidity;BME280_pressure;Samples;Min_cycle;Max_cycle;Signal;HPM_P1;HPM_P2
2021/08/26 00:01:08;;;;;;;6.30;3.20;;;21.40;73.80;;;;;;5013859;28;20381;-62
2021/08/26 00:06:21;;;;;;;3.65;2.72;;;21.50;74.60;;;;;;5032526;28;20032;-62
2021/08/26 00:08:50;;;;;;;3.70;3.10;;;21.50;74.90;;;;;;5033275;28;20029;-62
2021/08/26 00:11:22;;;;;;;3.45;2.88;;;21.50;75.30;;;;;;5032594;28;20045;-62
2021/08/26 00:13:50;;;;;;;3.80;2.90;;;21.50;75.50;;;;;;5033436;28;20457;-62
2021/08/26 00:16:20;;;;;;;5.72;3.03;;;21.50;75.40;;;;;;5032858;28;20029;-62
2021/08/26 00:18:47;;;;;;;3.03;2.72;;;21.40;75.50;;;;;;5033354;28;20384;-62
2021/08/26 00:21:13;;;;;;;3.03;2.75;;;21.40;75.70;;;;;;5033381;28;20033;-62
2021/08/26 00:23:39;;;;;;;4.03;2.63;;;21.40;75.20;;;;;;5033363;28;20481;-62
2021/08/26 00:26:05;;;;;;;2.83;2.60;;;21.30;74.90;;;;;;5024330;28;20057;-62
2021/08/26 00:28:30;;;;;;;5.10;3.08;;;21.30;75.10;;;;;;5019423;28;20030;-62
2021/08/26 00:30:56;;;;;;;3.65;2.70;;;21.20;75.40;;;;;;5032725;28;20049;-62
2021/08/26 00:33:22;;;;;;;2.95;2.65;;;21.20;75.10;;;;;;5033361;28;20377;-62
2021/08/26 00:35:48;;;;;;;3.72;3.40;;;21.20;74.80;;;;;;5026881;28;20113;-62
2021/08/26 00:38:14;;;;;;;4.35;3.40;;;21.20;75.00;;;;;;5013057;28;20034;-62
2021/08/26 00:40:40;;;;;;;3.22;2.90;;;21.10;74.90;;;;;;5013170;28;20381;-62
2021/08/26 00:43:06;;;;;;;4.25;2.95;;;21.10;74.80;;;;;;5013093;28;20077;-62
2021/08/26 00:45:33;;;;;;;4.40;2.83;;;21.10;75.10;;;;;;5014262;28;20489;-62
2021/08/26 00:48:02;;;;;;;3.33;2.60;;;21.10;74.80;;;;;;5013089;28;20026;-62
2021/08/26 00:50:28;;;;;;;2.83;2.60;;;21.10;74.60;;;;;;5017073;28;20053;-62
2021/08/26 00:52:54;;;;;;;2.90;2.50;;;21.00;74.10;;;;;;5036590;28;20481;-62
2021/08/26 00:55:20;;;;;;;2.55;2.33;;;21.00;73.70;;;;;;5036851;28;20025;-62
2021/08/26 00:57:46;;;;;;;5.43;2.42;;;21.00;73.50;;;;;;5036690;28;20029;-62
2021/08/26 01:00:12;;;;;;;4.00;2.58;;;20.90;73.40;;;;;;5036901;28;20033;-62
2021/08/26 01:02:59;;;;;;;2.65;2.45;;;20.90;73.40;;;;;;5034846;28;20033;-62
2021/08/26 01:05:47;;;;;;;2.63;2.42;;;20.90;73.00;;;;;;5035911;28;21648;-62
2021/08/26 01:08:40;;;;;;;2.50;2.30;;;20.80;73.20;;;;;;5036393;28;20037;-62
2021/08/26 01:11:06;;;;;;;2.20;2.10;;;20.80;73.60;;;;;;5035296;28;20022;-62
2021/08/26 01:13:38;;;;;;;3.35;2.28;;;20.80;73.20;;;;;;5036662;28;20029;-62
2021/08/26 01:16:14;;;;;;;2.55;2.35;;;20.80;73.10;;;;;;5036046;28;20083;-62
2021/08/26 01:18:45;;;;;;;2.40;2.20;;;20.80;72.90;;;;;;5036529;28;20492;-62
2021/08/26 01:21:15;;;;;;;2.80;2.55;;;20.80;72.70;;;;;;5036090;28;20381;-62
2021/08/26 01:23:47;;;;;;;2.45;2.25;;;20.70;72.80;;;;;;5036280;28;20036;-62
2021/08/26 01:26:30;;;;;;;3.60;2.65;;;20.80;73.20;;;;;;5027517;28;20061;-62
2021/08/26 01:28:58;;;;;;;2.53;2.33;;;20.70;73.20;;;;;;5031679;28;20029;-62
2021/08/26 01:31:24;;;;;;;2.75;2.55;;;20.70;73.20;;;;;;5035946;28;20128;-62
2021/08/26 01:33:53;;;;;;;2.97;2.30;;;20.60;73.00;;;;;;5036131;28;20488;-62
2021/08/26 01:36:21;;;;;;;2.60;2.40;;;20.60;73.20;;;;;;5027520;28;20485;-62
2021/08/26 01:38:48;;;;;;;2.42;2.22;;;20.60;73.40;;;;;;5016533;28;20104;-62
2021/08/26 01:41:17;;;;;;;2.25;2.00;;;20.60;73.50;;;;;;5016150;28;20024;-62
2021/08/26 01:43:45;;;;;;;2.22;2.13;;;20.60;73.70;;;;;;5016410;28;20491;-62
2021/08/26 01:46:11;;;;;;;2.58;2.38;;;20.50;73.70;;;;;;5018671;28;20026;-62
2021/08/26 01:48:37;;;;;;;2.55;2.35;;;20.50;73.70;;;;;;5026051;28;20029;-62
2021/08/26 01:51:02;;;;;;;2.63;2.33;;;20.40;73.90;;;;;;5035891;28;20443;-62
2021/08/26 01:53:28;;;;;;;2.20;2.05;;;20.40;74.00;;;;;;5029939;28;20037;-62
2021/08/26 01:55:54;;;;;;;2.85;2.53;;;20.40;74.80;;;;;;5016416;28;20354;-62
2021/08/26 01:58:19;;;;;;;2.28;2.08;;;20.40;74.30;;;;;;5015877;28;20058;-62
2021/08/26 02:00:45;;;;;;;2.50;2.22;;;20.40;74.40;;;;;;5016075;28;20026;-62
2021/08/26 02:03:11;;;;;;;3.97;2.47;;;20.40;74.40;;;;;;5025505;28;20057;-62
2021/08/26 02:05:37;;;;;;;3.65;2.55;;;20.40;74.30;;;;;;5032852;28;20061;-62
2021/08/26 02:08:03;;;;;;;2.60;2.40;;;20.30;74.30;;;;;;5015576;28;20028;-62
2021/08/26 02:10:29;;;;;;;2.65;2.45;;;20.30;74.50;;;;;;5016187;28;20060;-62
2021/08/26 02:12:55;;;;;;;2.75;2.30;;;20.30;74.60;;;;;;5015640;28;20125;-62
2021/08/26 02:15:21;;;;;;;2.70;2.22;;;20.30;74.80;;;;;;5015720;28;20507;-62
2021/08/26 02:17:46;;;;;;;2.70;2.47;;;20.30;74.90;;;;;;5015750;28;20026;-62
2021/08/26 02:20:13;;;;;;;2.67;2.47;;;20.30;74.80;;;;;;5015450;28;20520;-62
2021/08/26 02:22:39;;;;;;;2.70;2.30;;;20.30;75.10;;;;;;5015359;28;20026;-62
2021/08/26 02:25:06;;;;;;;3.60;2.53;;;20.30;75.30;;;;;;5015356;28;20104;-62
2021/08/26 02:27:31;;;;;;;2.50;2.30;;;20.30;75.30;;;;;;5016317;28;20057;-62
2021/08/26 02:29:57;;;;;;;3.10;2.80;;;20.30;75.40;;;;;;5033316;28;20057;-62
2021/08/26 02:32:23;;;;;;;3.10;2.70;;;20.30;75.50;;;;;;5034792;28;20045;-62
2021/08/26 02:34:48;;;;;;;2.90;2.60;;;20.30;75.80;;;;;;5035039;28;20018;-62
2021/08/26 02:37:14;;;;;;;3.47;2.97;;;20.20;75.70;;;;;;5019995;28;20034;-62
2021/08/26 02:39:40;;;;;;;3.00;2.70;;;20.20;75.70;;;;;;5015122;28;20049;-62
2021/08/26 02:42:06;;;;;;;3.03;2.72;;;20.20;76.00;;;;;;5014869;28;20469;-62
2021/08/26 02:44:32;;;;;;;3.33;3.03;;;20.10;76.00;;;;;;5015584;28;20026;-62
2021/08/26 02:46:58;;;;;;;4.40;3.10;;;20.10;75.90;;;;;;5027671;28;20049;-62
2021/08/26 02:49:24;;;;;;;3.20;2.90;;;20.10;76.10;;;;;;5034662;28;20476;-62
2021/08/26 02:51:49;;;;;;;3.40;2.80;;;20.10;76.20;;;;;;5033882;28;20021;-62
2021/08/26 02:54:15;;;;;;;3.53;3.03;;;20.00;76.30;;;;;;5034653;28;20378;-62
2021/08/26 02:56:41;;;;;;;3.65;2.75;;;20.00;76.30;;;;;;5024551;28;20029;-62
2021/08/26 02:59:06;;;;;;;3.00;2.70;;;20.00;76.50;;;;;;5014688;28;20137;-62
2021/08/26 03:01:32;;;;;;;3.20;2.90;;;20.00;76.50;;;;;;5016344;28;20025;-62
2021/08/26 03:03:58;;;;;;;4.18;3.78;;;20.00;76.50;;;;;;5034085;28;20491;-62
2021/08/26 03:06:23;;;;;;;3.55;3.10;;;20.00;76.50;;;;;;5033940;28;20366;-62
2021/08/26 03:08:49;;;;;;;4.88;2.95;;;19.90;76.40;;;;;;5034288;28;20029;-62
2021/08/26 03:11:15;;;;;;;3.25;2.90;;;19.90;76.10;;;;;;5034305;28;20034;-62
2021/08/26 03:13:40;;;;;;;3.75;3.22;;;19.90;76.20;;;;;;5033977;28;20034;-62
2021/08/26 03:16:07;;;;;;;3.95;3.22;;;19.90;76.20;;;;;;5028243;28;20489;-62
2021/08/26 03:18:33;;;;;;;3.72;2.97;;;19.80;76.20;;;;;;5014950;28;20560;-62
2021/08/26 03:20:59;;;;;;;3.55;3.25;;;19.80;76.40;;;;;;5014352;28;20084;-62
2021/08/26 03:23:24;;;;;;;3.33;3.03;;;19.80;76.40;;;;;;5014477;28;20026;-62
2021/08/26 03:25:51;;;;;;;3.42;3.08;;;19.80;76.50;;;;;;5017160;28;20091;-62
2021/08/26 03:28:18;;;;;;;3.55;3.25;;;19.80;76.70;;;;;;5033793;28;20404;-62
2021/08/26 03:30:44;;;;;;;4.43;3.15;;;19.80;76.60;;;;;;5033921;28;20132;-62
2021/08/26 03:33:09;;;;;;;5.43;3.10;;;19.90;76.80;;;;;;5034205;28;20065;-62
2021/08/26 03:35:35;;;;;;;4.57;3.28;;;19.90;76.90;;;;;;5032709;28;20061;-62
2021/08/26 03:38:01;;;;;;;4.40;3.58;;;19.90;77.10;;;;;;5013902;28;20029;-62
2021/08/26 03:40:27;;;;;;;3.40;3.03;;;19.90;77.30;;;;;;5014248;28;20421;-62
2021/08/26 03:42:52;;;;;;;5.13;3.28;;;20.00;77.40;;;;;;5013968;28;20026;-62
2021/08/26 03:45:18;;;;;;;3.40;3.10;;;20.00;77.50;;;;;;5014118;28;20504;-62
2021/08/26 03:47:44;;;;;;;3.25;2.95;;;20.10;77.30;;;;;;5031511;28;20026;-62
2021/08/26 03:50:09;;;;;;;3.90;3.05;;;20.10;77.50;;;;;;5033476;28;20033;-62
2021/08/26 03:52:35;;;;;;;4.32;3.22;;;20.10;77.50;;;;;;5026879;28;20100;-62
2021/08/26 03:55:01;;;;;;;4.28;3.10;;;20.10;77.60;;;;;;5013798;28;20022;-62
2021/08/26 03:57:26;;;;;;;3.70;3.10;;;20.10;77.50;;;;;;5026302;28;20032;-62
2021/08/26 03:59:52;;;;;;;3.88;3.00;;;20.20;77.50;;;;;;5033371;28;20031;-62
2021/08/26 04:02:18;;;;;;;4.35;3.30;;;20.20;77.50;;;;;;5030193;28;20480;-62
2021/08/26 04:04:44;;;;;;;4.20;3.33;;;20.30;77.40;;;;;;5013510;28;20036;-62
2021/08/26 04:07:09;;;;;;;4.20;3.00;;;20.30;77.30;;;;;;5026038;28;20021;-62
2021/08/26 04:09:35;;;;;;;4.18;3.25;;;20.30;77.20;;;;;;5032375;28;20021;-62
2021/08/26 04:12:01;;;;;;;4.25;3.30;;;20.30;77.00;;;;;;5033145;28;20079;-62
2021/08/26 04:14:26;;;;;;;3.75;3.10;;;20.40;77.00;;;;;;5032843;28;20075;-62
2021/08/26 04:16:52;;;;;;;3.83;3.53;;;20.40;76.70;;;;;;5025721;28;20037;-62
2021/08/26 04:19:17;;;;;;;3.17;2.88;;;20.40;76.80;;;;;;5013174;28;20022;-62
2021/08/26 04:21:43;;;;;;;3.35;2.67;;;20.40;76.90;;;;;;5013347;28;20072;-62
2021/08/26 04:24:09;;;;;;;3.00;2.78;;;20.40;76.70;;;;;;5013289;28;20382;-62
2021/08/26 04:26:34;;;;;;;3.50;2.97;;;20.40;76.60;;;;;;5016071;28;20409;-62
2021/08/26 04:29:00;;;;;;;3.33;2.83;;;20.40;76.60;;;;;;5033006;28;20428;-62
2021/08/26 04:31:26;;;;;;;2.70;2.50;;;20.40;76.50;;;;;;5032815;28;20049;-62
2021/08/26 04:33:51;;;;;;;2.97;2.67;;;20.40;76.40;;;;;;5032830;28;20096;-62
2021/08/26 04:36:17;;;;;;;3.08;2.78;;;20.50;76.40;;;;;;5032698;28;20108;-62
2021/08/26 04:38:43;;;;;;;3.00;2.65;;;20.50;76.40;;;;;;5032828;28;20130;-62
2021/08/26 04:41:08;;;;;;;3.38;3.08;;;20.50;76.30;;;;;;5033207;28;20148;-62
2021/08/26 04:43:34;;;;;;;3.42;2.80;;;20.50;76.40;;;;;;5032057;28;20022;-62
2021/08/26 04:46:00;;;;;;;3.25;2.95;;;20.60;76.40;;;;;;5032738;28;20028;-62
2021/08/26 04:48:25;;;;;;;3.97;3.10;;;20.60;76.40;;;;;;5033064;28;20469;-62
2021/08/26 04:50:51;;;;;;;2.88;2.63;;;20.70;76.30;;;;;;5032890;28;20025;-62
2021/08/26 04:53:16;;;;;;;3.22;2.92;;;20.70;76.20;;;;;;5029914;28;20037;-62
2021/08/26 04:55:42;;;;;;;3.85;3.00;;;20.80;76.40;;;;;;5032733;28;20025;-62
2021/08/26 04:58:08;;;;;;;3.15;2.85;;;20.90;76.40;;;;;;5032706;28;20029;-62
2021/08/26 05:00:34;;;;;;;3.03;2.83;;;21.00;76.40;;;;;;5031812;28;20017;-62
2021/08/26 05:02:59;;;;;;;3.38;2.60;;;21.00;76.00;;;;;;5029938;28;20366;-62
2021/08/26 05:05:25;;;;;;;3.33;3.03;;;21.20;75.90;;;;;;5032635;28;20029;-62
2021/08/26 05:07:51;;;;;;;2.83;2.53;;;21.20;75.60;;;;;;5032153;28;20062;-62
2021/08/26 05:10:16;;;;;;;3.25;2.83;;;21.40;75.10;;;;;;5030631;28;20089;-62
2021/08/26 05:12:42;;;;;;;3.45;2.75;;;21.40;74.80;;;;;;5016609;28;21296;-62
2021/08/26 05:15:08;;;;;;;3.40;3.10;;;21.50;74.70;;;;;;5034147;28;20021;-62
2021/08/26 05:17:33;;;;;;;3.70;2.95;;;21.60;74.60;;;;;;5029749;28;20030;-62
2021/08/26 05:19:59;;;;;;;3.20;2.90;;;21.70;74.10;;;;;;5026883;28;20042;-62
2021/08/26 05:22:25;;;;;;;3.30;3.00;;;21.80;73.80;;;;;;5037138;28;20021;-63
2021/08/26 05:24:51;;;;;;;3.30;2.95;;;21.80;73.50;;;;;;5036488;28;20060;-64
2021/08/26 05:27:20;;;;;;;3.15;2.88;;;21.90;73.30;;;;;;5029689;28;20022;-63
2021/08/26 05:29:46;;;;;;;6.55;2.90;;;21.90;73.10;;;;;;5030842;28;20501;-63
2021/08/26 05:32:12;;;;;;;3.72;3.08;;;21.80;73.00;;;;;;5029221;28;20046;-63
2021/08/26 05:34:38;;;;;;;3.72;3.28;;;21.80;73.00;;;;;;5029047;28;20026;-64
2021/08/26 05:37:03;;;;;;;3.85;3.00;;;21.80;72.90;;;;;;5024920;28;20022;-63
2021/08/26 05:39:29;;;;;;;3.83;2.88;;;21.80;73.20;;;;;;5033883;28;20507;-63
2021/08/26 05:41:56;;;;;;;3.08;2.78;;;21.80;73.20;;;;;;5033904;28;20021;-60
2021/08/26 05:44:21;;;;;;;3.67;3.10;;;21.80;72.90;;;;;;5032770;28;20071;-60
2021/08/26 05:46:47;;;;;;;3.55;3.25;;;21.80;72.80;;;;;;5016657;28;20111;-59
2021/08/26 05:49:13;;;;;;;4.50;3.00;;;21.80;72.80;;;;;;5029602;28;20032;-61
2021/08/26 05:51:38;;;;;;;3.10;2.78;;;21.80;72.60;;;;;;5028571;28;20103;-61
2021/08/26 05:54:04;;;;;;;4.75;3.17;;;21.80;72.70;;;;;;5031149;28;20044;-62
2021/08/26 05:56:31;;;;;;;3.78;3.35;;;21.80;72.80;;;;;;5026000;28;20033;-63
2021/08/26 05:58:56;;;;;;;3.42;3.13;;;21.80;73.00;;;;;;5019420;28;20072;-63
2021/08/26 06:01:27;;;;;;;3.33;3.03;;;21.80;72.80;;;;;;5024255;28;20160;-62
2021/08/26 06:03:53;;;;;;;3.45;2.95;;;21.80;72.60;;;;;;5024669;28;20048;-61
2021/08/26 06:06:18;;;;;;;4.22;3.25;;;21.80;72.40;;;;;;5025939;28;20030;-61
2021/08/26 06:08:44;;;;;;;3.75;3.08;;;21.80;72.30;;;;;;5025439;28;20033;-61
2021/08/26 06:11:10;;;;;;;3.33;3.03;;;21.80;72.10;;;;;;5023576;28;20033;-60
2021/08/26 06:13:35;;;;;;;3.35;3.05;;;21.80;72.30;;;;;;5023507;28;20029;-61
2021/08/26 06:16:01;;;;;;;3.70;3.17;;;21.70;72.30;;;;;;5027189;28;20075;-60
2021/08/26 06:18:27;;;;;;;3.95;2.92;;;21.70;72.40;;;;;;5022694;28;20030;-62
2021/08/26 06:20:52;;;;;;;4.35;3.45;;;21.70;72.10;;;;;;5022673;28;20048;-60
2021/08/26 06:23:18;;;;;;;3.65;3.10;;;21.70;72.10;;;;;;5023006;28;20065;-62
2021/08/26 06:25:44;;;;;;;3.13;2.80;;;21.70;72.10;;;;;;5021436;28;20033;-62
2021/08/26 06:28:09;;;;;;;3.95;3.17;;;21.60;72.10;;;;;;5024238;28;20033;-63
2021/08/26 06:30:35;;;;;;;3.90;3.28;;;21.70;72.10;;;;;;5024195;28;20116;-62
2021/08/26 06:33:01;;;;;;;4.22;3.83;;;21.60;72.30;;;;;;5023712;28;20436;-62
2021/08/26 06:35:26;;;;;;;4.32;3.55;;;21.60;72.20;;;;;;5014430;28;20458;-62
2021/08/26 06:37:52;;;;;;;4.25;3.60;;;21.60;72.40;;;;;;5018650;28;20111;-63
2021/08/26 06:40:18;;;;;;;3.88;3.47;;;21.60;72.50;;;;;;5019465;28;20028;-62
2021/08/26 06:42:44;;;;;;;4.03;3.63;;;21.60;72.40;;;;;;5019070;28;20083;-62
2021/08/26 06:45:10;;;;;;;3.78;3.33;;;21.70;72.60;;;;;;5022707;28;20503;-62
2021/08/26 06:47:36;;;;;;;4.25;3.42;;;21.70;72.60;;;;;;5021945;28;20025;-63
2021/08/26 06:50:02;;;;;;;4.30;3.90;;;21.80;72.60;;;;;;5021369;28;20227;-62
2021/08/26 06:52:28;;;;;;;3.92;3.28;;;21.90;72.40;;;;;;5019117;28;20380;-62
2021/08/26 06:54:54;;;;;;;5.22;3.78;;;21.90;72.30;;;;;;5021673;28;20029;-63
2021/08/26 06:57:19;;;;;;;4.22;3.83;;;22.00;72.50;;;;;;5021398;28;20029;-62
2021/08/26 06:59:45;;;;;;;4.32;3.90;;;22.10;72.40;;;;;;5021298;28;20536;-63
2021/08/26 07:02:11;;;;;;;3.95;3.53;;;22.20;72.40;;;;;;5015721;28;20116;-64
2021/08/26 07:04:37;;;;;;;3.88;3.47;;;22.20;72.40;;;;;;5011736;28;20091;-64
2021/08/26 07:07:03;;;;;;;4.43;4.00;;;22.30;71.80;;;;;;5010704;28;20381;-63
2021/08/26 07:09:28;;;;;;;4.93;4.20;;;22.30;71.90;;;;;;5008987;28;20316;-62
2021/08/26 07:11:54;;;;;;;4.28;3.88;;;22.40;71.60;;;;;;5010680;28;20267;-62
2021/08/26 07:14:20;;;;;;;4.68;4.18;;;22.40;71.60;;;;;;5005228;28;20033;-63
2021/08/26 07:16:45;;;;;;;4.80;4.30;;;22.50;71.80;;;;;;5010986;28;20586;-63
2021/08/26 07:19:11;;;;;;;6.20;4.38;;;22.60;71.50;;;;;;5014575;28;20079;-63
2021/08/26 07:21:37;;;;;;;4.82;4.32;;;22.60;71.30;;;;;;5012304;28;20171;-62
2021/08/26 07:24:03;;;;;;;6.70;4.55;;;22.70;70.70;;;;;;5013413;28;20033;-62
2021/08/26 07:26:29;;;;;;;5.03;4.45;;;22.70;70.50;;;;;;5014821;28;20033;-64
2021/08/26 07:28:55;;;;;;;5.22;4.72;;;22.80;70.30;;;;;;5020100;28;20043;-61
2021/08/26 07:31:24;;;;;;;4.57;3.80;;;22.80;70.20;;;;;;5014153;28;20111;-62
2021/08/26 07:33:50;;;;;;;5.35;4.85;;;22.80;71.20;;;;;;5019838;28;20132;-63
2021/08/26 07:36:16;;;;;;;5.25;4.75;;;22.90;70.50;;;;;;5020154;28;20098;-62
2021/08/26 07:38:41;;;;;;;5.32;4.68;;;22.90;70.20;;;;;;5015045;28;20030;-61
2021/08/26 07:41:07;;;;;;;6.20;5.50;;;23.00;69.90;;;;;;5015271;28;20036;-62
2021/08/26 07:43:35;;;;;;;5.85;5.25;;;23.00;69.60;;;;;;5011752;28;20480;-62
2021/08/26 07:46:02;;;;;;;5.93;5.20;;;23.10;69.40;;;;;;5009067;28;20095;-63
2021/08/26 07:48:27;;;;;;;5.50;5.00;;;23.10;69.40;;;;;;5015156;28;20040;-63
2021/08/26 07:50:53;;;;;;;5.30;4.80;;;23.20;69.50;;;;;;5015934;28;20024;-62
2021/08/26 07:53:22;;;;;;;6.65;5.75;;;23.20;69.70;;;;;;5012383;28;20036;-62
2021/08/26 07:55:48;;;;;;;6.13;5.32;;;23.30;69.60;;;;;;5010871;28;20036;-62
2021/08/26 07:58:13;;;;;;;5.68;5.13;;;23.30;69.50;;;;;;5007500;28;20025;-62
2021/08/26 08:00:39;;;;;;;7.00;5.53;;;23.40;69.60;;;;;;5011267;28;20029;-62
2021/08/26 08:03:05;;;;;;;5.80;5.22;;;23.40;69.20;;;;;;5010549;28;20030;-62
2021/08/26 08:05:31;;;;;;;5.47;4.72;;;23.50;69.10;;;;;;5011604;28;20033;-62
2021/08/26 08:07:58;;;;;;;5.53;4.95;;;23.50;69.20;;;;;;5015011;28;20554;-62
2021/08/26 08:10:24;;;;;;;5.95;5.35;;;23.50;69.10;;;;;;5024957;28;20398;-63
2021/08/26 08:12:50;;;;;;;7.55;6.15;;;23.50;69.30;;;;;;5008448;28;20509;-63
2021/08/26 08:15:15;;;;;;;6.20;5.60;;;23.50;69.10;;;;;;5008667;28;20155;-63
2021/08/26 08:17:41;;;;;;;6.78;6.07;;;23.50;68.90;;;;;;5006417;28;20238;-63
2021/08/26 08:20:08;;;;;;;5.53;5.03;;;23.50;68.90;;;;;;4996063;28;20029;-63
2021/08/26 08:22:34;;;;;;;6.82;6.13;;;23.60;69.00;;;;;;5002492;28;20057;-63
2021/08/26 08:25:00;;;;;;;6.15;5.55;;;23.60;68.90;;;;;;5004518;28;20025;-64
2021/08/26 08:27:26;;;;;;;6.63;5.70;;;23.60;68.50;;;;;;4998285;28;22578;-63
2021/08/26 08:29:52;;;;;;;5.78;5.18;;;23.60;68.50;;;;;;4985639;28;20029;-63
2021/08/26 08:32:17;;;;;;;6.20;5.57;;;23.60;68.50;;;;;;5007055;28;20056;-63
2021/08/26 08:34:43;;;;;;;6.28;5.60;;;23.50;68.50;;;;;;5018373;28;20065;-63
2021/08/26 08:37:09;;;;;;;7.03;6.10;;;23.60;68.60;;;;;;5012923;28;20037;-63
2021/08/26 08:39:35;;;;;;;7.00;5.68;;;23.60;68.40;;;;;;5019093;28;20068;-62
2021/08/26 08:42:01;;;;;;;7.70;6.07;;;23.60;68.40;;;;;;5015778;28;20045;-62
2021/08/26 08:44:27;;;;;;;6.70;5.95;;;23.60;68.60;;;;;;4989211;28;20040;-63
2021/08/26 08:46:57;;;;;;;5.82;5.13;;;23.70;68.30;;;;;;4992251;28;20030;-61
2021/08/26 08:49:23;;;;;;;;;;;23.70;68.30;;;;;;5005447;28;20123;-63
2021/08/26 08:51:51;;;;;;;5.78;5.25;;;23.70;68.50;;;;;;5003282;28;19921;-63
2021/08/26 08:54:17;;;;;;;6.45;5.72;;;23.70;68.50;;;;;;4992119;28;20021;-64
2021/08/26 08:56:44;;;;;;;5.32;4.82;;;23.70;68.60;;;;;;5011797;28;23049;-63
2021/08/26 08:59:09;;;;;;;6.55;5.38;;;23.80;68.80;;;;;;5008525;28;20126;-63
2021/08/26 09:01:35;;;;;;;6.78;5.57;;;23.70;68.60;;;;;;5007678;28;21378;-62
2021/08/26 09:04:01;;;;;;;5.93;5.32;;;23.70;68.90;;;;;;5015131;28;20033;-63
2021/08/26 09:06:40;;;;;;;6.10;5.50;;;23.70;69.20;;;;;;5012604;28;20026;-63
2021/08/26 09:09:08;;;;;;;6.53;5.65;;;23.70;69.10;;;;;;5012550;28;20057;-63
2021/08/26 09:11:33;;;;;;;6.22;5.63;;;23.70;69.30;;;;;;5016300;28;20049;-62
2021/08/26 09:14:12;;;;;;;5.68;5.07;;;23.60;69.30;;;;;;5014697;28;20752;-63
2021/08/26 09:16:47;;;;;;;6.18;5.45;;;23.60;69.40;;;;;;5015212;28;20033;-63
2021/08/26 09:19:20;;;;;;;5.63;5.05;;;23.60;69.40;;;;;;5018434;28;20745;-63
2021/08/26 09:21:49;;;;;;;6.40;5.80;;;23.60;69.40;;;;;;5021783;28;20037;-63
2021/08/26 09:24:15;;;;;;;6.20;5.53;;;23.60;69.60;;;;;;5023440;28;20055;-62
2021/08/26 09:26:45;;;;;;;5.93;5.28;;;23.60;69.80;;;;;;5015550;28;20701;-63
2021/08/26 09:29:12;;;;;;;6.88;6.28;;;23.60;70.00;;;;;;5020474;28;20040;-63
2021/08/26 09:31:38;;;;;;;6.53;5.93;;;23.60;70.00;;;;;;4989090;28;20080;-63
2021/08/26 09:34:30;;;;;;;6.15;5.55;;;23.60;70.00;;;;;;4981945;28;20032;-64
2021/08/26 09:36:56;;;;;;;5.57;4.97;;;23.60;70.00;;;;;;4974939;28;20495;-64
2021/08/26 09:39:25;;;;;;;5.65;5.00;;;23.60;70.40;;;;;;4978257;28;20042;-63
2021/08/26 09:42:02;;;;;;;5.95;5.35;;;23.70;70.40;;;;;;4978105;28;20025;-63
2021/08/26 09:44:33;;;;;;;5.93;5.32;;;23.70;70.40;;;;;;4978029;28;20541;-63
2021/08/26 09:47:02;;;;;;;6.05;4.95;;;23.80;70.70;;;;;;4974741;28;20042;-63
2021/08/26 09:49:30;;;;;;;5.72;4.90;;;23.80;70.40;;;;;;4979370;28;20077;-63
2021/08/26 09:52:16;;;;;;;6.00;5.30;;;23.80;70.40;;;;;;4979467;28;20066;-62
2021/08/26 09:54:41;;;;;;;5.60;5.00;;;23.90;70.00;;;;;;4971484;28;20491;-63
2021/08/26 09:57:21;;;;;;;5.57;5.07;;;23.80;70.00;;;;;;4975789;28;20030;-62
2021/08/26 09:59:49;;;;;;;5.67;5.07;;;23.80;69.90;;;;;;4971847;28;20042;-63
2021/08/26 10:02:16;;;;;;;5.35;4.85;;;23.80;70.00;;;;;;4974668;28;20041;-64
2021/08/26 10:04:42;;;;;;;6.32;4.97;;;23.80;70.00;;;;;;4974167;28;20169;-63
2021/08/26 10:07:08;;;;;;;5.60;5.00;;;23.70;70.00;;;;;;4973352;28;20031;-63
2021/08/26 10:09:37;;;;;;;5.88;5.28;;;23.70;70.20;;;;;;4975822;28;20153;-63
2021/08/26 10:12:03;;;;;;;5.72;5.13;;;23.70;70.30;;;;;;4971826;28;20499;-63
2021/08/26 10:14:29;;;;;;;6.30;5.40;;;23.60;70.40;;;;;;4974831;28;20125;-63
2021/08/26 10:16:55;;;;;;;5.90;5.30;;;23.60;70.50;;;;;;4971110;28;20038;-63
2021/08/26 10:19:22;;;;;;;5.90;5.13;;;23.60;70.50;;;;;;4968664;28;20061;-63
2021/08/26 10:21:47;;;;;;;5.72;5.13;;;23.50;70.70;;;;;;4967219;28;20030;-63
2021/08/26 10:24:14;;;;;;;6.13;5.53;;;23.50;70.80;;;;;;4967800;28;20946;-63
2021/08/26 10:26:47;;;;;;;5.57;5.03;;;23.50;70.80;;;;;;4972315;28;20678;-64
2021/08/26 10:29:15;;;;;;;5.82;5.22;;;23.50;71.00;;;;;;4977215;28;20030;-64
2021/08/26 10:31:41;;;;;;;6.38;5.35;;;23.50;71.30;;;;;;4992424;28;20171;-63
2021/08/26 10:34:12;;;;;;;7.18;5.43;;;23.50;71.50;;;;;;5016156;28;20061;-62
2021/08/26 10:37:17;;;;;;;6.20;5.50;;;23.40;71.70;;;;;;5012718;28;20037;-63
2021/08/26 10:39:43;;;;;;;5.35;4.82;;;23.40;71.90;;;;;;4990749;28;20504;-63
2021/08/26 10:42:38;;;;;;;5.38;4.88;;;23.30;72.20;;;;;;5017661;28;20028;-63
2021/08/26 10:45:05;;;;;;;5.15;4.63;;;23.40;72.30;;;;;;5019219;28;20041;-63
2021/08/26 10:47:50;;;;;;;5.15;4.65;;;23.30;72.40;;;;;;5019787;28;20036;-63
2021/08/26 10:50:20;;;;;;;5.15;4.65;;;23.40;72.50;;;;;;5021044;28;20029;-63
2021/08/26 10:52:56;;;;;;;5.80;4.90;;;23.30;72.40;;;;;;4998364;28;20044;-63
2021/08/26 10:55:42;;;;;;;7.50;5.38;;;23.30;72.50;;;;;;5011735;28;20279;-62
2021/08/26 10:58:23;;;;;;;5.38;4.88;;;23.30;72.30;;;;;;5005736;28;20166;-64
2021/08/26 11:00:54;;;;;;;5.95;5.35;;;23.30;72.70;;;;;;5013773;28;20061;-63
2021/08/26 11:03:32;;;;;;;6.00;5.40;;;23.20;72.80;;;;;;5021762;28;20068;-64
2021/08/26 11:06:01;;;;;;;8.07;7.28;;;23.30;73.00;;;;;;5016181;28;20486;-63
2021/08/26 11:08:33;;;;;;;7.43;6.72;;;23.30;73.10;;;;;;5008101;28;20029;-63
2021/08/26 11:11:30;;;;;;;26.77;24.27;;;23.30;73.10;;;;;;5006882;28;20034;-63
2021/08/26 11:14:02;;;;;;;39.00;35.30;;;23.30;73.00;;;;;;5010552;28;20018;-65
2021/08/26 11:16:27;;;;;;;22.73;20.60;;;23.30;73.10;;;;;;5007652;28;20029;-64
2021/08/26 11:19:05;;;;;;;16.77;14.98;;;23.30;72.90;;;;;;5006574;28;21111;-63
2021/08/26 11:24:23;;;;;;;7.60;6.80;;;23.30;72.80;;;;;;5009570;28;20033;-63
2021/08/26 11:26:48;;;;;;;7.07;5.70;;;23.30;72.90;;;;;;5012577;28;20045;-63
2021/08/26 11:29:20;;;;;;;6.70;5.35;;;23.20;72.90;;;;;;5015671;28;20388;-63
2021/08/26 11:31:55;;;;;;;6.70;5.60;;;23.20;72.90;;;;;;5010539;28;20080;-62
2021/08/26 11:34:27;;;;;;;6.63;5.70;;;23.20;73.00;;;;;;5011706;28;21195;-61
2021/08/26 11:37:23;;;;;;;6.13;5.53;;;23.20;73.20;;;;;;5014205;28;20065;-62
2021/08/26 11:40:05;;;;;;;8.63;5.03;;;23.20;73.10;;;;;;5011198;28;21318;-62
2021/08/26 11:42:36;;;;;;;5.95;5.38;;;23.20;73.20;;;;;;5009213;28;20113;-63
2021/08/26 11:45:23;;;;;;;5.82;5.22;;;23.30;73.90;;;;;;5011289;28;20025;-64
2021/08/26 11:47:58;;;;;;;6.20;5.60;;;23.30;73.20;;;;;;5011087;28;20026;-63
2021/08/26 11:50:32;;;;;;;7.28;5.60;;;23.40;73.20;;;;;;5013683;28;20100;-64
2021/08/26 11:53:00;;;;;;;8.32;5.55;;;23.40;73.40;;;;;;5004198;28;20040;-64
2021/08/26 11:55:28;;;;;;;7.80;5.28;;;23.40;73.90;;;;;;5011145;28;20080;-63
2021/08/26 11:57:56;;;;;;;6.80;5.93;;;23.40;74.00;;;;;;5006809;28;20129;-63
2021/08/26 12:00:22;;;;;;;6.93;5.82;;;23.30;73.90;;;;;;5010870;28;20053;-64
2021/08/26 12:02:56;;;;;;;7.72;6.35;;;23.30;73.80;;;;;;5015483;28;20037;-62
2021/08/26 12:05:25;;;;;;;8.40;5.93;;;23.30;73.70;;;;;;5004447;28;20058;-63
2021/08/26 12:07:52;;;;;;;8.07;6.43;;;23.20;74.00;;;;;;5010770;28;20039;-64
2021/08/26 12:10:33;;;;;;;8.40;7.50;;;23.20;74.30;;;;;;5011352;28;20025;-64
2021/08/26 12:13:00;;;;;;;7.85;6.82;;;23.20;74.20;;;;;;5010796;28;20043;-63
2021/08/26 12:15:36;;;;;;;7.32;6.38;;;23.20;74.30;;;;;;5011912;28;20041;-63
2021/08/26 12:18:10;;;;;;;8.73;7.82;;;23.10;74.20;;;;;;5010191;28;22925;-64
2021/08/26 12:21:00;;;;;;;8.60;7.22;;;23.00;74.40;;;;;;5002697;28;20029;-62
2021/08/26 12:23:29;;;;;;;7.87;7.07;;;23.00;74.80;;;;;;5009268;28;20468;-63
2021/08/26 12:26:10;;;;;;;7.53;6.78;;;22.90;75.30;;;;;;4996799;28;20029;-64
2021/08/26 12:28:48;;;;;;;10.80;7.32;;;23.00;75.20;;;;;;5014490;28;20037;-64
2021/08/26 12:31:22;;;;;;;8.70;7.45;;;23.00;75.40;;;;;;5018116;28;20072;-63
2021/08/26 12:34:08;;;;;;;7.63;6.82;;;23.00;75.70;;;;;;5010756;28;20032;-64
2021/08/26 12:36:36;;;;;;;9.25;7.60;;;23.00;75.80;;;;;;5008047;28;20041;-63
2021/08/26 12:39:14;;;;;;;8.52;7.32;;;23.00;76.10;;;;;;5016968;28;20777;-63
2021/08/26 12:41:39;;;;;;;8.27;7.47;;;23.00;76.70;;;;;;5013846;28;20060;-64
2021/08/26 12:44:05;;;;;;;8.23;7.35;;;23.00;77.00;;;;;;5015821;28;20113;-63
2021/08/26 12:46:32;;;;;;;7.72;6.78;;;23.10;77.40;;;;;;5015030;28;20038;-63
2021/08/26 12:49:10;;;;;;;7.88;6.88;;;23.10;77.70;;;;;;4999681;28;20068;-63
2021/08/26 12:51:57;;;;;;;8.38;7.13;;;23.20;77.60;;;;;;5014781;28;20076;-63
2021/08/26 12:54:23;;;;;;;8.15;7.35;;;23.10;77.70;;;;;;5013052;28;20136;-62
2021/08/26 12:56:51;;;;;;;10.07;7.07;;;23.10;77.80;;;;;;5019751;28;20033;-63
2021/08/26 12:59:18;;;;;;;9.07;6.97;;;23.10;78.00;;;;;;5019346;28;20148;-64